createdAt,value
2022-07-30T00:08:11.906Z,8
2022-07-30T00:37:31.786Z,8
2022-07-30T01:06:50.328Z,8
2022-07-30T01:36:07.497Z,10
2022-07-30T02:05:25.652Z,10
2022-07-30T02:34:44.739Z,10
2022-07-30T03:04:03.874Z,8
2022-07-30T03:33:22.119Z,9
2022-07-30T04:02:43.187Z,10
2022-07-30T04:32:03.281Z,10
2022-07-30T05:01:33.988Z,11
2022-07-30T05:29:58.292Z,10
2022-07-30T05:59:19.404Z,11
2022-07-30T06:28:40.758Z,11
2022-07-30T06:58:00.893Z,13
2022-07-30T07:27:21.172Z,10
2022-07-30T07:56:43.329Z,10
2022-07-30T08:25:44.771Z,13
2022-07-30T08:55:05.273Z,10
2022-07-30T09:24:24.749Z,10
2022-07-30T09:53:46.255Z,10
2022-07-30T10:22:50.160Z,8
2022-07-30T10:51:34.618Z,10
2022-07-30T11:20:12.243Z,10
2022-07-30T11:48:52.434Z,8
2022-07-30T12:18:26.136Z,8
2022-07-30T12:46:45.197Z,7
2022-07-30T13:16:06.687Z,7
2022-07-30T13:45:29.451Z,8
2022-07-30T14:14:52.190Z,5
2022-07-30T14:44:16.920Z,5
2022-07-30T15:13:02.337Z,7
2022-07-30T15:42:24.699Z,5
2022-07-30T16:11:47.139Z,6
2022-07-30T16:40:36.376Z,7
2022-07-30T17:09:58.805Z,7
2022-07-30T17:38:44.841Z,6
2022-07-30T18:08:04.156Z,5
2022-07-30T18:37:41.385Z,7
2022-07-30T19:06:00.251Z,6
2022-07-30T19:35:20.729Z,6
2022-07-30T20:04:43.903Z,8
2022-07-30T20:33:33.198Z,7
2022-07-30T21:02:02.363Z,10
2022-07-30T21:30:57.751Z,9
2022-07-30T21:59:47.363Z,7
2022-07-30T22:29:05.857Z,8
2022-07-30T22:58:26.726Z,5
2022-07-30T23:27:20.761Z,7
2022-07-30T23:56:40.722Z,7
